createdAt,value
2022-09-17T00:01:28.190Z,100286.50
2022-09-17T00:04:00.293Z,100284.84
2022-09-17T00:06:27.667Z,100292.03
2022-09-17T00:08:55.711Z,100285.28
2022-09-17T00:11:31.901Z,100292.16
2022-09-17T00:14:01.667Z,100283.22
2022-09-17T00:16:36.869Z,100283.19
2022-09-17T00:19:05.659Z,100288.72
2022-09-17T00:21:32.946Z,100289.66
2022-09-17T00:24:04.557Z,100291.38
2022-09-17T00:26:32.632Z,100286.16
2022-09-17T00:29:00.325Z,100290.13
2022-09-17T00:31:28.951Z,100282.41
2022-09-17T00:33:56.602Z,100282.94
2022-09-17T00:36:23.719Z,100285.25
2022-09-17T00:38:59.278Z,100292.13
2022-09-17T00:41:34.651Z,100294.66
2022-09-17T00:44:41.158Z,100289.34
2022-09-17T00:47:31.055Z,100293.13
2022-09-17T00:50:10.685Z,100288.16
2022-09-17T00:52:58.447Z,100297.56
2022-09-17T00:55:37.910Z,100299.34
2022-09-17T00:58:09.957Z,100298.88
2022-09-17T01:00:37.220Z,100301.81
2022-09-17T01:03:04.149Z,100302.84
2022-09-17T01:05:54.543Z,100302.91
2022-09-17T01:08:38.458Z,100299.72
2022-09-17T01:11:36.331Z,100303.81
2022-09-17T01:14:51.008Z,100303.81
2022-09-17T01:17:35.284Z,100308.34
2022-09-17T01:20:43.763Z,100304.78
2022-09-17T01:23:49.185Z,100305.72
2022-09-17T01:26:54.028Z,100301.84
2022-09-17T01:29:41.886Z,100298.16
2022-09-17T01:32:25.483Z,100310.25
2022-09-17T01:35:15.213Z,100311.03
2022-09-17T01:37:50.615Z,100313.34
2022-09-17T01:40:28.986Z,100312.22
2022-09-17T01:43:09.550Z,100305.88
2022-09-17T01:45:43.577Z,100315.94
2022-09-17T01:48:19.460Z,100318.25
2022-09-17T01:50:58.213Z,100323.22
2022-09-17T01:53:35.543Z,100332.03
2022-09-17T01:56:03.768Z,100325.63
2022-09-17T01:58:39.648Z,100322.66
2022-09-17T02:01:09.896Z,100321.25
2022-09-17T02:03:50.778Z,100324.94
2022-09-17T02:06:24.463Z,100330.78
2022-09-17T02:08:58.211Z,100330.13
2022-09-17T02:11:25.310Z,100325.69
2022-09-17T02:14:03.988Z,100334.13
2022-09-17T02:16:35.685Z,100332.50
2022-09-17T02:19:11.266Z,100333.47
2022-09-17T02:22:04.075Z,100343.06
2022-09-17T02:25:01.492Z,100341.13
2022-09-17T02:27:36.685Z,100346.56
2022-09-17T02:30:05.253Z,100350.38
2022-09-17T02:32:32.098Z,100343.06
2022-09-17T02:34:58.929Z,100340.69
2022-09-17T02:37:25.719Z,100350.78
2022-09-17T02:39:52.590Z,100342.72
2022-09-17T02:43:00.676Z,100344.88
2022-09-17T02:46:17.484Z,100336.34
2022-09-17T02:49:10.711Z,100337.44
2022-09-17T02:51:55.381Z,100329.69
2022-09-17T02:54:56.010Z,100329.88
2022-09-17T02:58:26.637Z,100330.50
2022-09-17T03:00:55.800Z,100330.72
2022-09-17T03:03:52.115Z,100333.09
2022-09-17T03:06:19.345Z,100332.88
2022-09-17T03:08:47.499Z,100323.06
2022-09-17T03:11:14.994Z,100328.31
2022-09-17T03:13:42.147Z,100324.25
2022-09-17T03:16:09.381Z,100325.44
2022-09-17T03:18:36.450Z,100326.91
2022-09-17T03:21:03.337Z,100330.31
2022-09-17T03:23:30.123Z,100334.31
2022-09-17T03:25:57.625Z,100331.88
2022-09-17T03:28:26.391Z,100331.50
2022-09-17T03:30:54.057Z,100329.91
2022-09-17T03:33:21.071Z,100329.09
2022-09-17T03:35:48.010Z,100329.09
2022-09-17T03:38:15.428Z,100333.63
2022-09-17T03:40:42.372Z,100331.94
2022-09-17T03:43:09.380Z,100328.53
2022-09-17T03:45:40.644Z,100330.63
2022-09-17T03:48:07.448Z,100340.31
2022-09-17T03:50:34.262Z,100334.44
2022-09-17T03:53:01.039Z,100344.59
2022-09-17T03:55:27.896Z,100344.53
2022-09-17T03:57:56.012Z,100348.53
2022-09-17T04:00:22.905Z,100348.75
2022-09-17T04:02:49.834Z,100355.50
2022-09-17T04:05:16.827Z,100351.69
2022-09-17T04:07:43.705Z,100356.69
2022-09-17T04:10:10.552Z,100354.78
2022-09-17T04:12:37.924Z,100356.50
2022-09-17T04:15:05.426Z,100360.00
2022-09-17T04:17:32.432Z,100355.63
2022-09-17T04:19:59.381Z,100353.09
2022-09-17T04:22:26.924Z,100354.53
2022-09-17T04:24:54.444Z,100358.84
2022-09-17T04:27:21.345Z,100347.97
2022-09-17T04:29:48.174Z,100347.19
2022-09-17T04:32:14.937Z,100353.41
2022-09-17T04:34:41.823Z,100340.75
2022-09-17T04:37:08.701Z,100345.13
2022-09-17T04:39:35.702Z,100356.72
2022-09-17T04:42:02.515Z,100356.91
2022-09-17T04:44:29.339Z,100361.31
2022-09-17T04:46:56.274Z,100361.63
2022-09-17T04:49:23.139Z,100359.06
2022-09-17T04:51:49.938Z,100364.81
2022-09-17T04:54:16.764Z,100367.88
2022-09-17T04:56:43.671Z,100367.09
2022-09-17T04:59:10.585Z,100370.53
2022-09-17T05:01:37.610Z,100376.09
2022-09-17T05:04:04.410Z,100376.38
2022-09-17T05:06:31.229Z,100381.72
2022-09-17T05:08:58.102Z,100372.78
2022-09-17T05:11:24.912Z,100376.84
2022-09-17T05:13:51.835Z,100373.13
2022-09-17T05:16:18.739Z,100377.66
2022-09-17T05:18:45.792Z,100377.38
2022-09-17T05:21:12.645Z,100382.38
2022-09-17T05:23:39.442Z,100376.81
2022-09-17T05:26:06.242Z,100379.56
2022-09-17T05:28:33.073Z,100386.59
2022-09-17T05:31:01.042Z,100383.63
2022-09-17T05:33:28.448Z,100380.28
2022-09-17T05:35:55.376Z,100389.38
2022-09-17T05:38:22.590Z,100394.94
2022-09-17T05:40:49.431Z,100402.66
2022-09-17T05:43:16.510Z,100398.91
2022-09-17T05:45:43.669Z,100399.72
2022-09-17T05:48:16.070Z,100409.25
2022-09-17T05:50:42.899Z,100407.94
2022-09-17T05:53:13.845Z,100403.16
2022-09-17T05:55:40.674Z,100417.78
2022-09-17T05:58:19.343Z,100408.34
2022-09-17T06:00:48.728Z,100404.75
2022-09-17T06:03:21.780Z,100411.41
2022-09-17T06:05:56.463Z,100412.28
2022-09-17T06:08:24.845Z,100424.34
2022-09-17T06:10:51.904Z,100422.41
2022-09-17T06:13:19.758Z,100429.06
2022-09-17T06:15:54.069Z,100420.66
2022-09-17T06:18:21.363Z,100417.44
2022-09-17T06:20:59.686Z,100427.75
2022-09-17T06:23:27.605Z,100430.66
2022-09-17T06:25:58.787Z,100434.94
2022-09-17T06:28:29.452Z,100441.19
2022-09-17T06:31:01.497Z,100440.75
2022-09-17T06:33:28.429Z,100440.56
2022-09-17T06:36:06.688Z,100446.97
2022-09-17T06:38:36.842Z,100442.78
2022-09-17T06:41:04.330Z,100440.41
2022-09-17T06:43:31.899Z,100449.69
2022-09-17T06:46:02.153Z,100448.13
2022-09-17T06:48:30.713Z,100449.13
2022-09-17T06:51:06.314Z,100453.56
2022-09-17T06:53:33.518Z,100446.78
2022-09-17T06:56:06.213Z,100454.06
2022-09-17T06:58:37.252Z,100438.44
2022-09-17T07:01:05.315Z,100438.44
2022-09-17T07:03:32.905Z,100439.72
2022-09-17T07:06:00.324Z,100438.16
2022-09-17T07:08:27.188Z,100441.47
2022-09-17T07:10:58.472Z,100441.94
2022-09-17T07:13:26.389Z,100441.59
2022-09-17T07:16:00.822Z,100441.47
2022-09-17T07:18:28.317Z,100440.53
2022-09-17T07:20:58.022Z,100449.28
2022-09-17T07:23:29.837Z,100446.41
2022-09-17T07:25:59.490Z,100450.28
2022-09-17T07:28:27.815Z,100452.56
2022-09-17T07:30:55.808Z,100452.13
2022-09-17T07:33:26.218Z,100449.63
2022-09-17T07:35:54.881Z,100447.84
2022-09-17T07:38:22.783Z,100442.72
2022-09-17T07:41:05.492Z,100451.56
2022-09-17T07:43:34.986Z,100444.63
2022-09-17T07:46:04.655Z,100450.16
2022-09-17T07:48:32.319Z,100453.22
2022-09-17T07:50:59.169Z,100459.13
2022-09-17T07:53:27.109Z,100460.00
2022-09-17T07:55:59.700Z,100454.91
2022-09-17T07:58:33.409Z,100453.31
2022-09-17T08:01:05.155Z,100452.19
2022-09-17T08:03:32.149Z,100459.13
2022-09-17T08:06:08.492Z,100458.78
2022-09-17T08:08:37.334Z,100455.50
2022-09-17T08:11:07.728Z,100452.34
2022-09-17T08:13:34.686Z,100452.22
2022-09-17T08:16:05.312Z,100451.78
2022-09-17T08:18:32.873Z,100457.56
2022-09-17T08:21:02.478Z,100464.00
2022-09-17T08:23:31.190Z,100448.75
2022-09-17T08:26:01.246Z,100449.34
2022-09-17T08:28:30.927Z,100450.28
2022-09-17T08:31:06.294Z,100457.94
2022-09-17T08:33:38.109Z,100446.72
2022-09-17T08:36:07.610Z,100461.50
2022-09-17T08:38:39.116Z,100457.47
2022-09-17T08:41:23.289Z,100462.34
2022-09-17T08:44:06.194Z,100462.31
2022-09-17T08:46:43.446Z,100458.03
2022-09-17T08:49:36.319Z,100464.72
2022-09-17T08:52:15.296Z,100480.59
2022-09-17T08:55:08.027Z,100476.56
2022-09-17T08:57:46.940Z,100483.97
2022-09-17T09:00:18.605Z,100477.56
2022-09-17T09:03:16.766Z,100478.41
2022-09-17T09:05:47.590Z,100471.81
2022-09-17T09:08:41.302Z,100476.09
2022-09-17T09:11:16.469Z,100476.25
2022-09-17T09:14:22.137Z,100464.78
2022-09-17T09:16:50.123Z,100465.59
2022-09-17T09:19:27.118Z,100471.56
2022-09-17T09:22:13.807Z,100470.44
2022-09-17T09:25:16.842Z,100471.44
2022-09-17T09:28:03.790Z,100465.03
2022-09-17T09:30:54.010Z,100470.66
2022-09-17T09:33:37.875Z,100462.94
2022-09-17T09:36:11.680Z,100466.44
2022-09-17T09:39:01.756Z,100467.72
2022-09-17T09:41:43.376Z,100465.66
2022-09-17T09:44:14.032Z,100460.25
2022-09-17T09:47:13.308Z,100453.88
2022-09-17T09:49:58.427Z,100455.31
2022-09-17T09:52:49.252Z,100457.97
2022-09-17T09:55:53.972Z,100457.78
2022-09-17T09:58:37.335Z,100464.72
2022-09-17T10:01:16.494Z,100460.00
2022-09-17T10:03:46.159Z,100463.94
2022-09-17T10:06:15.222Z,100461.50
2022-09-17T10:08:49.639Z,100461.50
2022-09-17T10:11:26.272Z,100466.81
2022-09-17T10:13:53.313Z,100462.59
2022-09-17T10:16:21.873Z,100460.53
2022-09-17T10:18:51.307Z,100463.13
2022-09-17T10:21:33.158Z,100470.59
2022-09-17T10:24:02.743Z,100474.75
2022-09-17T10:26:33.657Z,100459.97
2022-09-17T10:29:05.178Z,100448.72
2022-09-17T10:31:53.724Z,100441.06
2022-09-17T10:34:29.330Z,100435.56
2022-09-17T10:36:57.225Z,100432.72
2022-09-17T10:39:26.978Z,100429.84
2022-09-17T10:42:07.284Z,100422.31
2022-09-17T10:44:37.236Z,100429.19
2022-09-17T10:47:14.539Z,100430.44
2022-09-17T10:50:01.276Z,100432.00
2022-09-17T10:52:35.526Z,100443.75
2022-09-17T10:55:20.499Z,100448.25
2022-09-17T10:58:09.766Z,100442.41
2022-09-17T11:01:05.941Z,100442.53
2022-09-17T11:04:17.858Z,100445.31
2022-09-17T11:07:05.674Z,100439.53
2022-09-17T11:09:53.403Z,100453.47
2022-09-17T11:13:11.734Z,100439.34
2022-09-17T11:15:54.066Z,100447.66
2022-09-17T11:18:35.665Z,100446.56
2022-09-17T11:21:21.192Z,100446.72
2022-09-17T11:24:05.941Z,100440.28
2022-09-17T11:27:05.853Z,100446.72
2022-09-17T11:30:19.620Z,100441.16
2022-09-17T11:33:20.243Z,100439.03
2022-09-17T11:35:52.821Z,100444.06
2022-09-17T11:38:43.288Z,100445.25
2022-09-17T11:41:22.971Z,100446.72
2022-09-17T11:44:20.820Z,100440.44
2022-09-17T11:47:10.576Z,100438.44
2022-09-17T11:49:54.904Z,100438.66
2022-09-17T11:52:28.585Z,100431.34
2022-09-17T11:55:09.874Z,100431.78
2022-09-17T11:57:40.306Z,100426.94
2022-09-17T12:00:17.967Z,100428.44
2022-09-17T12:02:55.281Z,100426.94
2022-09-17T12:05:29.612Z,100434.84
2022-09-17T12:08:18.508Z,100430.19
2022-09-17T12:10:57.269Z,100424.38
2022-09-17T12:14:16.176Z,100419.34
2022-09-17T12:16:48.653Z,100422.16
2022-09-17T12:19:25.403Z,100418.78
2022-09-17T12:22:11.900Z,100410.88
2022-09-17T12:24:40.358Z,100412.69
2022-09-17T12:27:20.062Z,100410.38
2022-09-17T12:30:22.841Z,100407.97
2022-09-17T12:33:45.033Z,100405.16
2022-09-17T12:36:40.872Z,100397.19
2022-09-17T12:39:34.627Z,100385.72
2022-09-17T12:42:49.461Z,100397.22
2022-09-17T12:45:37.397Z,100396.31
2022-09-17T12:48:35.259Z,100383.56
2022-09-17T12:51:14.297Z,100382.41
2022-09-17T12:54:21.997Z,100386.22
2022-09-17T12:57:43.357Z,100380.84
2022-09-17T13:00:15.768Z,100375.25
2022-09-17T13:03:15.281Z,100367.03
2022-09-17T13:06:15.211Z,100369.31
2022-09-17T13:08:55.753Z,100375.13
2022-09-17T13:11:55.758Z,100369.75
2022-09-17T13:14:28.762Z,100368.50
2022-09-17T13:17:13.243Z,100364.69
2022-09-17T13:19:52.825Z,100363.22
2022-09-17T13:22:23.146Z,100345.78
2022-09-17T13:25:08.415Z,100360.91
2022-09-17T13:27:38.106Z,100362.44
2022-09-17T13:30:11.008Z,100355.16
2022-09-17T13:32:40.546Z,100361.28
2022-09-17T13:35:09.989Z,100354.66
2022-09-17T13:37:45.795Z,100358.66
2022-09-17T13:40:34.819Z,100343.31
2022-09-17T13:43:06.263Z,100353.13
2022-09-17T13:45:36.226Z,100351.78
2022-09-17T13:48:11.094Z,100350.63
2022-09-17T13:50:44.884Z,100343.75
2022-09-17T13:53:14.509Z,100351.34
2022-09-17T13:55:55.415Z,100346.56
2022-09-17T13:58:29.923Z,100338.19
2022-09-17T14:01:02.909Z,100348.22
2022-09-17T14:03:37.718Z,100357.69
2022-09-17T14:06:11.156Z,100351.91
2022-09-17T14:08:44.020Z,100349.28
2022-09-17T14:11:22.851Z,100357.22
2022-09-17T14:14:12.708Z,100368.44
2022-09-17T14:16:50.112Z,100365.63
2022-09-17T14:19:30.751Z,100367.78
2022-09-17T14:22:06.617Z,100365.81
2022-09-17T14:24:54.620Z,100363.31
2022-09-17T14:27:55.833Z,100353.25
2022-09-17T14:30:30.563Z,100364.13
2022-09-17T14:33:22.797Z,100359.19
2022-09-17T14:36:00.985Z,100359.34
2022-09-17T14:38:44.645Z,100366.13
2022-09-17T14:41:11.412Z,100360.00
2022-09-17T14:44:01.282Z,100360.47
2022-09-17T14:46:47.504Z,100368.75
2022-09-17T14:49:22.729Z,100368.38
2022-09-17T14:51:54.317Z,100366.25
2022-09-17T14:54:26.696Z,100368.78
2022-09-17T14:57:24.544Z,100373.91
2022-09-17T14:59:57.621Z,100365.44
2022-09-17T15:02:44.744Z,100378.34
2022-09-17T15:05:33.591Z,100385.25
2022-09-17T15:08:21.099Z,100381.16
2022-09-17T15:11:05.017Z,100387.41
2022-09-17T15:13:51.732Z,100383.94
2022-09-17T15:16:25.803Z,100382.97
2022-09-17T15:18:59.456Z,100381.16
2022-09-17T15:21:49.406Z,100383.28
2022-09-17T15:24:36.374Z,100389.72
2022-09-17T15:27:29.289Z,100388.25
2022-09-17T15:30:15.937Z,100384.59
2022-09-17T15:32:50.085Z,100381.28
2022-09-17T15:35:21.665Z,100390.22
2022-09-17T15:38:11.875Z,100385.59
2022-09-17T15:40:43.611Z,100383.78
2022-09-17T15:43:33.311Z,100384.94
2022-09-17T15:46:30.956Z,100380.16
2022-09-17T15:49:03.405Z,100394.69
2022-09-17T15:51:37.099Z,100383.59
2022-09-17T15:54:06.669Z,100392.69
2022-09-17T15:56:39.347Z,100395.00
2022-09-17T15:59:24.422Z,100398.09
2022-09-17T16:01:55.800Z,100401.53
2022-09-17T16:04:25.433Z,100395.59
2022-09-17T16:07:11.766Z,100416.75
2022-09-17T16:09:53.287Z,100410.75
2022-09-17T16:12:23.175Z,100413.50
2022-09-17T16:14:53.592Z,100417.50
2022-09-17T16:17:46.206Z,100419.88
2022-09-17T16:20:25.034Z,100413.44
2022-09-17T16:22:53.392Z,100419.94
2022-09-17T16:25:24.961Z,100429.22
2022-09-17T16:27:58.412Z,100435.63
2022-09-17T16:30:25.827Z,100442.56
2022-09-17T16:32:53.774Z,100455.81
2022-09-17T16:35:23.735Z,100459.56
2022-09-17T16:37:53.234Z,100458.44
2022-09-17T16:40:22.732Z,100453.13
2022-09-17T16:42:49.638Z,100472.13
2022-09-17T16:45:17.018Z,100476.75
2022-09-17T16:47:43.916Z,100474.53
2022-09-17T16:50:14.236Z,100481.59
2022-09-17T16:52:41.558Z,100480.50
2022-09-17T16:55:11.427Z,100474.59
2022-09-17T16:57:41.500Z,100470.28
2022-09-17T17:00:12.932Z,100462.97
2022-09-17T17:02:39.813Z,100467.41
2022-09-17T17:05:07.322Z,100466.81
2022-09-17T17:07:36.256Z,100458.84
2022-09-17T17:10:09.047Z,100457.47
2022-09-17T17:12:37.279Z,100453.50
2022-09-17T17:15:09.249Z,100456.31
2022-09-17T17:17:37.153Z,100458.25
2022-09-17T17:20:09.149Z,100458.09
2022-09-17T17:22:38.040Z,100463.91
2022-09-17T17:27:44.446Z,100468.06
2022-09-17T17:30:16.721Z,100461.44
2022-09-17T17:32:45.055Z,100472.94
2022-09-17T17:35:12.137Z,100482.03
2022-09-17T17:37:38.915Z,100483.72
2022-09-17T17:40:09.343Z,100473.53
2022-09-17T17:42:43.810Z,100480.31
2022-09-17T17:45:11.233Z,100483.78
2022-09-17T17:47:38.165Z,100492.63
2022-09-17T17:50:05.630Z,100498.69
2022-09-17T17:52:32.527Z,100492.03
2022-09-17T17:54:59.320Z,100496.88
2022-09-17T17:57:26.176Z,100497.19
2022-09-17T17:59:52.998Z,100505.03
2022-09-17T18:02:19.884Z,100505.19
2022-09-17T18:04:46.823Z,100509.06
2022-09-17T18:07:13.709Z,100516.31
2022-09-17T18:09:40.646Z,100524.44
2022-09-17T18:12:07.846Z,100526.66
2022-09-17T18:14:34.908Z,100529.13
2022-09-17T18:17:01.780Z,100531.47
2022-09-17T18:19:28.613Z,100548.41
2022-09-17T18:21:55.439Z,100547.88
2022-09-17T18:24:22.369Z,100552.50
2022-09-17T18:26:49.529Z,100553.28
2022-09-17T18:29:16.489Z,100552.13
2022-09-17T18:31:44.630Z,100567.00
2022-09-17T18:34:15.474Z,100561.16
2022-09-17T18:36:45.484Z,100565.75
2022-09-17T18:42:02.334Z,100584.13
2022-09-17T18:44:29.150Z,100600.63
2022-09-17T18:46:56.034Z,100608.09
2022-09-17T18:49:22.956Z,100607.16
2022-09-17T18:51:49.835Z,100603.56
2022-09-17T18:54:16.642Z,100602.19
2022-09-17T18:56:43.528Z,100601.94
2022-09-17T18:59:10.874Z,100604.81
2022-09-17T19:01:38.152Z,100614.22
2022-09-17T19:04:07.572Z,100607.66
2022-09-17T19:06:34.933Z,100613.56
2022-09-17T19:09:04.139Z,100591.75
2022-09-17T19:11:31.081Z,100581.66
2022-09-17T19:13:58.094Z,100584.59
2022-09-17T19:16:25.062Z,100572.38
2022-09-17T19:18:51.976Z,100582.56
2022-09-17T19:21:23.045Z,100597.28
2022-09-17T19:23:51.850Z,100594.97
2022-09-17T19:26:24.949Z,100610.06
2022-09-17T19:28:54.564Z,100617.09
2022-09-17T19:31:22.322Z,100614.78
2022-09-17T19:33:50.447Z,100617.34
2022-09-17T19:36:18.821Z,100611.31
2022-09-17T19:38:46.542Z,100618.34
2022-09-17T19:41:17.254Z,100615.03
2022-09-17T19:43:45.170Z,100609.97
2022-09-17T19:46:17.917Z,100616.56
2022-09-17T19:48:52.329Z,100613.81
2022-09-17T19:51:21.599Z,100624.88
2022-09-17T19:53:48.464Z,100618.44
2022-09-17T19:56:22.183Z,100620.22
2022-09-17T19:58:49.299Z,100624.63
2022-09-17T20:01:16.858Z,100618.34
2022-09-17T20:03:45.021Z,100619.38
2022-09-17T20:06:15.500Z,100625.69
2022-09-17T20:08:51.076Z,100630.84
2022-09-17T20:11:20.777Z,100633.31
2022-09-17T20:13:47.829Z,100624.09
2022-09-17T20:16:18.461Z,100634.09
2022-09-17T20:18:46.679Z,100630.94
2022-09-17T20:21:20.510Z,100628.72
2022-09-17T20:23:47.727Z,100627.13
2022-09-17T20:26:15.917Z,100630.19
2022-09-17T20:28:43.474Z,100633.34
2022-09-17T20:31:17.167Z,100634.56
2022-09-17T20:33:45.302Z,100634.81
2022-09-17T20:36:18.255Z,100631.94
2022-09-17T20:39:10.826Z,100633.97
2022-09-17T20:41:32.383Z,100639.97
2022-09-17T20:43:59.449Z,100634.28
2022-09-17T20:46:29.381Z,100640.50
2022-09-17T20:48:58.207Z,100640.38
2022-09-17T20:51:28.945Z,100634.03
2022-09-17T20:53:57.364Z,100641.63
2022-09-17T20:56:32.359Z,100638.50
2022-09-17T20:59:15.264Z,100644.25
2022-09-17T21:01:45.585Z,100643.94
2022-09-17T21:04:16.554Z,100641.91
2022-09-17T21:06:44.851Z,100638.75
2022-09-17T21:09:16.399Z,100646.63
2022-09-17T21:11:48.153Z,100654.50
2022-09-17T21:14:17.247Z,100649.00
2022-09-17T21:16:45.738Z,100648.16
2022-09-17T21:19:14.753Z,100651.50
2022-09-17T21:21:41.661Z,100649.94
2022-09-17T21:24:11.676Z,100652.00
2022-09-17T21:26:38.519Z,100650.19
2022-09-17T21:29:05.520Z,100649.13
2022-09-17T21:31:34.472Z,100645.03
2022-09-17T21:34:06.264Z,100652.78
2022-09-17T21:36:36.079Z,100651.00
2022-09-17T21:39:14.291Z,100654.22
2022-09-17T21:41:43.181Z,100645.41
2022-09-17T21:44:11.920Z,100649.59
2022-09-17T21:46:40.049Z,100650.72
2022-09-17T21:49:07.803Z,100650.72
2022-09-17T21:51:39.184Z,100652.13
2022-09-17T21:54:12.570Z,100652.94
2022-09-17T21:56:39.476Z,100653.28
2022-09-17T21:59:09.667Z,100660.69
2022-09-17T22:01:40.784Z,100653.66
2022-09-17T22:04:10.850Z,100657.28
2022-09-17T22:06:38.057Z,100665.88
2022-09-17T22:09:06.808Z,100659.22
2022-09-17T22:11:36.838Z,100657.44
2022-09-17T22:14:10.699Z,100657.06
2022-09-17T22:16:43.833Z,100659.22
2022-09-17T22:19:13.653Z,100657.16
2022-09-17T22:21:45.154Z,100657.69
2022-09-17T22:24:12.448Z,100652.19
2022-09-17T22:26:43.599Z,100657.13
2022-09-17T22:29:16.410Z,100643.53
2022-09-17T22:31:44.783Z,100644.72
2022-09-17T22:34:18.825Z,100645.47
2022-09-17T22:36:45.824Z,100654.88
2022-09-17T22:39:12.826Z,100649.06
2022-09-17T22:41:45.804Z,100650.47
2022-09-17T22:44:18.775Z,100647.66
2022-09-17T22:46:48.887Z,100640.69
2022-09-17T22:49:16.590Z,100645.28
2022-09-17T22:51:45.079Z,100647.91
2022-09-17T22:54:14.499Z,100657.63
2022-09-17T22:56:42.356Z,100646.56
2022-09-17T22:59:09.563Z,100638.41
2022-09-17T23:01:37.270Z,100636.16
2022-09-17T23:04:05.286Z,100640.75
2022-09-17T23:06:36.532Z,100640.94
2022-09-17T23:09:03.945Z,100639.53
2022-09-17T23:11:33.947Z,100637.75
2022-09-17T23:14:04.984Z,100641.25
2022-09-17T23:16:42.317Z,100635.25
2022-09-17T23:19:09.989Z,100640.50
2022-09-17T23:21:38.484Z,100630.03
2022-09-17T23:24:05.979Z,100634.81
2022-09-17T23:26:33.269Z,100632.41
2022-09-17T23:29:04.834Z,100639.09
2022-09-17T23:31:33.969Z,100627.78
2022-09-17T23:34:01.238Z,100639.34
2022-09-17T23:36:32.099Z,100631.34
2022-09-17T23:39:02.125Z,100630.59
2022-09-17T23:41:39.938Z,100636.38
2022-09-17T23:44:14.793Z,100626.19
2022-09-17T23:46:44.089Z,100632.50
2022-09-17T23:49:12.582Z,100629.03
2022-09-17T23:51:39.523Z,100634.66
2022-09-17T23:54:07.187Z,100631.56
2022-09-17T23:56:35.235Z,100632.69
2022-09-17T23:59:02.549Z,100640.00
